createdAt,value
2016-09-15T00:02:02.995Z,19.4
2016-09-15T20:02:03.081Z,20.2
2016-09-15T20:07:03.524Z,20.3
2016-09-15T20:12:03.528Z,20.4
2016-09-15T20:17:03.676Z,20.3
2016-09-15T20:22:03.788Z,20.2
2016-09-15T20:27:03.272Z,20.1
2016-09-15T20:32:03.126Z,20.0
2016-09-15T20:37:03.139Z,19.6
2016-09-15T20:42:02.945Z,19.6
2016-09-15T20:47:03.766Z,19.4
2016-09-15T20:52:02.864Z,19.3
2016-09-15T20:57:03.388Z,19.2
2016-09-15T21:02:03.239Z,19.0
2016-09-15T21:07:03.495Z,18.9
2016-09-15T21:12:03.391Z,18.9
2016-09-15T21:17:03.559Z,18.8
2016-09-15T21:22:03.634Z,18.9
2016-09-15T21:27:03.980Z,18.9
2016-09-15T21:32:03.293Z,18.8
2016-09-15T21:37:03.282Z,18.8
2016-09-15T21:42:03.323Z,18.7
2016-09-15T21:47:03.445Z,18.7
2016-09-15T21:52:03.603Z,18.7
2016-09-15T21:57:02.775Z,18.7
2016-09-15T22:02:02.936Z,18.6
2016-09-15T22:07:03.373Z,18.7
2016-09-15T22:12:03.823Z,18.7
2016-09-15T22:22:04.032Z,18.4
2016-09-15T22:27:03.017Z,18.4
2016-09-15T22:32:03.404Z,18.4
2016-09-15T22:37:03.466Z,18.4
2016-09-15T22:42:03.647Z,18.4
2016-09-15T22:47:03.625Z,18.4
2016-09-15T22:52:02.871Z,18.3
2016-09-15T22:57:03.015Z,18.3
2016-09-15T23:02:03.098Z,18.3
2016-09-15T23:07:03.048Z,18.4
2016-09-15T23:12:03.224Z,18.5
2016-09-15T23:17:03.326Z,18.2
2016-09-15T23:22:03.474Z,18.2
2016-09-15T23:27:03.490Z,18.1
2016-09-15T23:32:03.622Z,17.9
2016-09-15T23:37:03.613Z,18.0
2016-09-15T23:42:03.694Z,17.9
2016-09-15T23:47:03.820Z,18.0
2016-09-15T23:52:02.975Z,18.0
2016-09-15T23:57:03.261Z,18.0
